createdAt,value
2022-10-16T00:00:09.090Z,97089.88
2022-10-16T00:02:37.478Z,97102.16
2022-10-16T00:05:06.594Z,97096.88
2022-10-16T00:07:34.977Z,97090.97
2022-10-16T00:10:04.778Z,97103.81
2022-10-16T00:12:33.031Z,97101.09
2022-10-16T00:15:01.415Z,97108.31
2022-10-16T00:17:29.889Z,97106.06
2022-10-16T00:19:58.144Z,97111.75
2022-10-16T00:22:26.699Z,97110.28
2022-10-16T00:24:55.286Z,97110.59
2022-10-16T00:27:24.982Z,97116.69
2022-10-16T00:29:53.404Z,97128.47
2022-10-16T00:32:21.770Z,97138.22
2022-10-16T00:34:50.017Z,97131.31
2022-10-16T00:37:18.258Z,97134.81
2022-10-16T00:39:46.709Z,97135.81
2022-10-16T00:42:17.248Z,97133.28
2022-10-16T00:44:57.865Z,97128.38
2022-10-16T00:47:28.854Z,97123.72
2022-10-16T00:50:00.995Z,97122.84
2022-10-16T00:52:29.189Z,97131.63
2022-10-16T00:54:57.520Z,97130.59
2022-10-16T00:57:25.726Z,97133.69
2022-10-16T00:59:55.392Z,97126.63
2022-10-16T01:02:24.000Z,97126.78
2022-10-16T01:04:53.948Z,97124.44
2022-10-16T01:07:29.138Z,97128.34
2022-10-16T01:10:04.857Z,97117.31
2022-10-16T01:12:38.757Z,97127.50
2022-10-16T01:15:12.962Z,97131.72
2022-10-16T01:17:43.867Z,97138.31
2022-10-16T01:20:14.634Z,97136.56
2022-10-16T01:22:49.704Z,97141.78
2022-10-16T01:25:21.638Z,97151.72
2022-10-16T01:27:51.218Z,97151.66
2022-10-16T01:30:21.187Z,97141.84
2022-10-16T01:32:52.099Z,97136.63
2022-10-16T01:35:24.469Z,97140.81
2022-10-16T01:37:53.882Z,97148.03
2022-10-16T01:40:22.745Z,97141.81
2022-10-16T01:42:54.408Z,97136.25
2022-10-16T01:45:22.708Z,97135.97
2022-10-16T01:47:51.642Z,97143.03
2022-10-16T01:50:20.957Z,97137.38
2022-10-16T01:52:50.558Z,97143.75
2022-10-16T01:55:21.030Z,97152.09
2022-10-16T01:57:49.785Z,97146.47
2022-10-16T02:00:19.685Z,97148.28
2022-10-16T02:02:50.205Z,97151.72
2022-10-16T02:05:20.708Z,97144.66
2022-10-16T02:07:49.454Z,97153.66
2022-10-16T02:10:18.271Z,97147.84
2022-10-16T02:12:48.469Z,97149.25
2022-10-16T02:15:16.725Z,97160.16
2022-10-16T02:17:46.685Z,97163.16
2022-10-16T02:20:14.935Z,97156.94
2022-10-16T02:22:44.926Z,97148.34
2022-10-16T02:25:14.001Z,97153.88
2022-10-16T02:27:45.472Z,97152.09
2022-10-16T02:30:15.992Z,97150.88
2022-10-16T02:32:46.715Z,97157.94
2022-10-16T02:35:14.966Z,97164.84
2022-10-16T02:37:43.285Z,97168.22
2022-10-16T02:40:12.636Z,97166.16
2022-10-16T02:42:41.829Z,97162.53
2022-10-16T02:45:11.340Z,97157.69
2022-10-16T02:47:39.896Z,97171.38
2022-10-16T02:50:10.307Z,97169.28
2022-10-16T02:52:38.573Z,97169.63
2022-10-16T02:55:07.696Z,97155.53
2022-10-16T02:57:37.810Z,97168.97
2022-10-16T03:00:07.176Z,97158.09
2022-10-16T03:02:35.397Z,97162.63
2022-10-16T03:05:03.626Z,97163.91
2022-10-16T03:07:33.321Z,97158.22
2022-10-16T03:10:02.166Z,97160.44
2022-10-16T03:12:30.682Z,97161.56
2022-10-16T03:14:58.913Z,97158.47
2022-10-16T03:17:27.749Z,97166.84
2022-10-16T03:19:56.298Z,97170.19
2022-10-16T03:22:24.546Z,97163.06
2022-10-16T03:24:54.231Z,97158.28
2022-10-16T03:27:22.491Z,97159.88
2022-10-16T03:29:50.636Z,97147.94
2022-10-16T03:32:19.528Z,97138.88
2022-10-16T03:34:47.763Z,97124.44
2022-10-16T03:37:15.968Z,97123.81
2022-10-16T03:39:44.216Z,97137.03
2022-10-16T03:42:13.843Z,97148.19
2022-10-16T03:44:42.011Z,97144.09
2022-10-16T03:47:10.300Z,97147.84
2022-10-16T03:49:38.444Z,97154.41
2022-10-16T03:52:06.735Z,97157.94
2022-10-16T03:54:34.949Z,97157.53
2022-10-16T03:57:03.198Z,97161.47
2022-10-16T03:59:32.763Z,97150.25
2022-10-16T04:02:01.064Z,97153.09
2022-10-16T04:04:31.580Z,97153.22
2022-10-16T04:06:59.815Z,97168.00
2022-10-16T04:09:28.409Z,97174.66
2022-10-16T04:11:57.001Z,97183.63
2022-10-16T04:14:25.200Z,97179.25
2022-10-16T04:16:54.821Z,97183.28
2022-10-16T04:19:22.949Z,97184.44
2022-10-16T04:21:51.187Z,97176.41
2022-10-16T04:24:19.315Z,97175.75
2022-10-16T04:26:47.529Z,97186.03
2022-10-16T04:29:15.757Z,97190.50
2022-10-16T04:31:44.025Z,97188.19
2022-10-16T04:34:13.941Z,97198.56
2022-10-16T04:36:42.167Z,97203.25
2022-10-16T04:39:10.486Z,97204.94
2022-10-16T04:41:38.991Z,97209.97
2022-10-16T04:44:07.251Z,97215.69
2022-10-16T04:46:35.428Z,97211.16
2022-10-16T04:49:03.643Z,97217.69
2022-10-16T04:51:33.493Z,97218.03
2022-10-16T04:54:01.734Z,97220.44
2022-10-16T04:56:29.912Z,97205.88
2022-10-16T04:58:58.173Z,97207.56
2022-10-16T05:01:26.409Z,97212.38
2022-10-16T05:03:54.638Z,97210.25
2022-10-16T05:06:22.829Z,97220.38
2022-10-16T05:08:52.477Z,97230.19
2022-10-16T05:11:20.649Z,97234.22
2022-10-16T05:13:50.947Z,97236.44
2022-10-16T05:16:21.747Z,97223.59
2022-10-16T05:18:53.062Z,97215.59
2022-10-16T05:21:21.469Z,97217.75
2022-10-16T05:23:49.704Z,97234.34
2022-10-16T05:26:19.291Z,97253.25
2022-10-16T05:28:47.537Z,97256.38
2022-10-16T05:31:15.749Z,97253.16
2022-10-16T05:33:45.157Z,97256.69
2022-10-16T05:36:14.018Z,97243.75
2022-10-16T05:38:42.392Z,97264.59
2022-10-16T05:41:10.602Z,97261.00
2022-10-16T05:43:40.405Z,97262.28
2022-10-16T05:46:08.567Z,97266.50
2022-10-16T05:48:36.932Z,97265.75
2022-10-16T05:51:12.239Z,97263.81
2022-10-16T05:53:40.932Z,97277.25
2022-10-16T05:56:09.696Z,97275.28
2022-10-16T05:58:41.531Z,97289.84
2022-10-16T06:01:12.067Z,97293.06
2022-10-16T06:03:40.388Z,97295.25
2022-10-16T06:06:12.846Z,97292.00
2022-10-16T06:08:41.197Z,97290.88
2022-10-16T06:11:10.416Z,97296.59
2022-10-16T06:13:40.102Z,97302.97
2022-10-16T06:16:09.203Z,97306.34
2022-10-16T06:18:41.195Z,97318.28
2022-10-16T06:21:11.961Z,97312.81
2022-10-16T06:23:40.238Z,97309.13
2022-10-16T06:26:09.393Z,97323.97
2022-10-16T06:28:37.659Z,97330.56
2022-10-16T06:31:08.498Z,97321.66
2022-10-16T06:33:36.950Z,97323.44
2022-10-16T06:36:05.861Z,97327.88
2022-10-16T06:38:34.060Z,97326.03
2022-10-16T06:41:02.318Z,97331.94
2022-10-16T06:43:33.127Z,97334.31
2022-10-16T06:46:02.336Z,97329.81
2022-10-16T06:48:32.752Z,97342.41
2022-10-16T06:51:01.638Z,97335.03
2022-10-16T06:53:39.384Z,97349.09
2022-10-16T06:56:11.741Z,97344.00
2022-10-16T06:58:39.968Z,97364.59
2022-10-16T07:01:08.220Z,97373.53
2022-10-16T07:03:46.475Z,97371.63
2022-10-16T07:06:15.594Z,97374.59
2022-10-16T07:08:45.339Z,97383.28
2022-10-16T07:11:18.744Z,97389.59
2022-10-16T07:13:50.941Z,97387.91
2022-10-16T07:16:25.054Z,97391.09
2022-10-16T07:18:59.400Z,97394.22
2022-10-16T07:21:29.929Z,97394.75
2022-10-16T07:23:59.353Z,97404.53
2022-10-16T07:26:28.457Z,97403.84
2022-10-16T07:28:56.823Z,97414.59
2022-10-16T07:31:26.276Z,97412.75
2022-10-16T07:33:55.984Z,97409.13
2022-10-16T07:36:37.838Z,97418.19
2022-10-16T07:39:15.105Z,97428.50
2022-10-16T07:41:44.908Z,97427.34
2022-10-16T07:44:13.184Z,97431.09
2022-10-16T07:46:41.420Z,97436.03
2022-10-16T07:49:11.522Z,97440.97
2022-10-16T07:51:40.462Z,97442.41
2022-10-16T07:54:10.067Z,97439.22
2022-10-16T07:56:41.303Z,97443.59
2022-10-16T07:59:12.038Z,97441.41
2022-10-16T08:01:44.567Z,97447.59
2022-10-16T08:04:14.301Z,97452.69
2022-10-16T08:06:42.619Z,97452.88
2022-10-16T08:09:10.977Z,97463.13
2022-10-16T08:11:41.585Z,97481.91
2022-10-16T08:14:09.800Z,97477.91
2022-10-16T08:16:37.987Z,97487.06
2022-10-16T08:19:06.211Z,97475.75
2022-10-16T08:21:35.867Z,97484.34
2022-10-16T08:24:04.112Z,97480.34
2022-10-16T08:26:32.685Z,97483.09
2022-10-16T08:29:01.233Z,97475.00
2022-10-16T08:31:33.279Z,97486.78
2022-10-16T08:34:01.868Z,97474.06
2022-10-16T08:36:30.116Z,97485.44
2022-10-16T08:38:59.785Z,97490.25
2022-10-16T08:41:59.208Z,97488.47
2022-10-16T08:44:38.200Z,97492.34
2022-10-16T08:47:10.847Z,97493.66
2022-10-16T08:49:55.050Z,97494.38
2022-10-16T08:52:23.481Z,97506.28
2022-10-16T08:54:58.635Z,97510.69
2022-10-16T08:57:27.931Z,97508.69
2022-10-16T09:00:00.637Z,97509.72
2022-10-16T09:02:33.526Z,97520.34
2022-10-16T09:05:25.366Z,97510.06
2022-10-16T09:10:36.070Z,97512.19
2022-10-16T09:13:06.228Z,97514.66
2022-10-16T09:15:36.747Z,97522.47
2022-10-16T09:18:09.030Z,97525.03
2022-10-16T09:20:47.988Z,97515.41
2022-10-16T09:23:17.842Z,97521.28
2022-10-16T09:25:49.939Z,97523.31
2022-10-16T09:28:33.313Z,97521.47
2022-10-16T09:31:01.676Z,97520.16
2022-10-16T09:33:31.993Z,97519.78
2022-10-16T09:36:00.692Z,97518.13
2022-10-16T09:38:30.288Z,97516.56
2022-10-16T09:41:03.042Z,97511.66
2022-10-16T09:43:36.324Z,97516.91
2022-10-16T09:46:05.486Z,97522.34
2022-10-16T09:48:36.429Z,97513.75
2022-10-16T09:51:05.906Z,97517.47
2022-10-16T09:53:41.877Z,97523.72
2022-10-16T09:56:14.989Z,97515.47
2022-10-16T09:58:46.649Z,97524.75
2022-10-16T10:01:15.829Z,97524.09
2022-10-16T10:03:44.660Z,97522.75
2022-10-16T10:06:24.908Z,97511.75
2022-10-16T10:09:07.056Z,97521.09
2022-10-16T10:11:57.881Z,97521.25
2022-10-16T10:14:29.207Z,97522.97
2022-10-16T10:17:12.218Z,97525.34
2022-10-16T10:19:41.321Z,97536.16
2022-10-16T10:22:19.848Z,97528.69
2022-10-16T10:24:56.530Z,97517.13
2022-10-16T10:27:28.000Z,97515.59
2022-10-16T10:29:58.586Z,97528.94
2022-10-16T10:32:30.054Z,97529.06
2022-10-16T10:35:06.714Z,97527.75
2022-10-16T10:37:49.380Z,97521.97
2022-10-16T10:40:24.702Z,97526.22
2022-10-16T10:42:56.037Z,97518.13
2022-10-16T10:45:28.631Z,97516.13
2022-10-16T10:48:03.970Z,97521.19
2022-10-16T10:50:36.016Z,97522.09
2022-10-16T10:53:08.574Z,97518.88
2022-10-16T10:55:41.762Z,97523.44
2022-10-16T10:58:36.009Z,97540.78
2022-10-16T11:01:06.791Z,97539.72
2022-10-16T11:03:44.795Z,97535.94
2022-10-16T11:06:14.675Z,97528.41
2022-10-16T11:08:44.428Z,97527.50
2022-10-16T11:11:14.475Z,97528.53
2022-10-16T11:13:46.587Z,97525.63
2022-10-16T11:16:20.520Z,97539.91
2022-10-16T11:18:53.393Z,97543.53
2022-10-16T11:21:24.283Z,97537.06
2022-10-16T11:23:56.286Z,97543.16
2022-10-16T11:26:26.517Z,97533.69
2022-10-16T11:28:57.057Z,97542.22
2022-10-16T11:31:30.020Z,97542.22
2022-10-16T11:36:40.633Z,97540.16
2022-10-16T11:39:14.625Z,97539.91
2022-10-16T11:41:45.191Z,97534.66
2022-10-16T11:44:21.848Z,97526.88
2022-10-16T11:47:00.603Z,97540.19
2022-10-16T11:49:42.237Z,97538.22
2022-10-16T11:54:49.941Z,97543.97
2022-10-16T11:57:20.329Z,97538.28
2022-10-16T11:59:51.164Z,97540.00
2022-10-16T12:02:42.789Z,97539.84
2022-10-16T12:05:21.687Z,97540.53
2022-10-16T12:07:52.952Z,97542.09
2022-10-16T12:10:27.476Z,97545.41
2022-10-16T12:12:55.893Z,97554.28
2022-10-16T12:15:47.070Z,97547.00
2022-10-16T12:18:23.547Z,97557.75
2022-10-16T12:21:07.620Z,97552.34
2022-10-16T12:23:41.249Z,97557.59
2022-10-16T12:26:09.595Z,97556.56
2022-10-16T12:28:38.857Z,97550.25
2022-10-16T12:31:09.634Z,97561.53
2022-10-16T12:33:39.225Z,97562.78
2022-10-16T12:36:38.618Z,97560.38
2022-10-16T12:39:06.861Z,97564.81
2022-10-16T12:41:36.007Z,97559.06
2022-10-16T12:44:04.245Z,97568.16
2022-10-16T12:46:41.549Z,97569.41
2022-10-16T12:49:26.766Z,97558.22
2022-10-16T12:51:55.014Z,97559.81
2022-10-16T12:54:30.887Z,97555.63
2022-10-16T12:57:10.955Z,97562.59
2022-10-16T12:59:43.700Z,97552.91
2022-10-16T13:02:22.866Z,97559.16
2022-10-16T13:05:13.707Z,97573.56
2022-10-16T13:07:49.195Z,97578.31
2022-10-16T13:10:24.670Z,97567.50
2022-10-16T13:13:12.958Z,97567.88
2022-10-16T13:15:48.806Z,97568.63
2022-10-16T13:18:19.124Z,97560.69
2022-10-16T13:21:05.571Z,97548.81
2022-10-16T13:23:35.810Z,97552.81
2022-10-16T13:26:11.830Z,97542.72
2022-10-16T13:28:41.322Z,97544.22
2022-10-16T13:31:14.528Z,97554.31
2022-10-16T13:33:44.749Z,97558.13
2022-10-16T13:36:21.453Z,97562.03
2022-10-16T13:38:50.164Z,97567.53
2022-10-16T13:41:19.124Z,97575.94
2022-10-16T13:43:48.084Z,97578.16
2022-10-16T13:46:17.312Z,97577.13
2022-10-16T13:48:47.135Z,97583.66
2022-10-16T13:51:16.136Z,97580.53
2022-10-16T13:53:44.527Z,97571.72
2022-10-16T13:56:14.852Z,97576.66
2022-10-16T13:58:43.094Z,97572.06
2022-10-16T14:01:19.951Z,97575.78
2022-10-16T14:03:52.866Z,97571.78
2022-10-16T14:09:27.271Z,97566.94
2022-10-16T14:11:57.674Z,97570.25
2022-10-16T14:14:25.876Z,97570.75
2022-10-16T14:16:56.837Z,97573.06
2022-10-16T14:19:28.918Z,97561.22
2022-10-16T14:21:57.474Z,97568.81
2022-10-16T14:24:28.589Z,97585.00
2022-10-16T14:26:57.584Z,97579.91
2022-10-16T14:29:26.553Z,97590.75
2022-10-16T14:32:04.079Z,97584.59
2022-10-16T14:34:34.861Z,97582.78
2022-10-16T14:39:38.197Z,97589.66
2022-10-16T14:42:06.767Z,97591.22
2022-10-16T14:44:35.166Z,97586.84
2022-10-16T14:47:15.975Z,97581.31
2022-10-16T14:49:45.631Z,97580.56
2022-10-16T14:52:14.355Z,97576.63
2022-10-16T14:54:42.632Z,97581.66
2022-10-16T14:57:18.977Z,97579.97
2022-10-16T14:59:48.378Z,97572.91
2022-10-16T15:02:21.342Z,97564.38
2022-10-16T15:04:51.383Z,97569.84
2022-10-16T15:07:19.689Z,97565.66
2022-10-16T15:09:49.372Z,97581.22
2022-10-16T15:12:17.805Z,97586.66
2022-10-16T15:14:46.081Z,97580.44
2022-10-16T15:17:16.383Z,97585.59
2022-10-16T15:19:47.028Z,97591.94
2022-10-16T15:22:16.708Z,97596.94
2022-10-16T15:24:50.320Z,97595.38
2022-10-16T15:27:18.514Z,97595.38
2022-10-16T15:29:46.733Z,97596.81
2022-10-16T15:32:14.967Z,97587.84
2022-10-16T15:34:43.689Z,97589.09
2022-10-16T15:37:13.265Z,97587.47
2022-10-16T15:39:43.427Z,97585.88
2022-10-16T15:42:12.516Z,97593.03
2022-10-16T15:44:40.816Z,97593.50
2022-10-16T15:47:09.750Z,97605.25
2022-10-16T15:49:38.094Z,97594.72
2022-10-16T15:52:06.334Z,97592.25
2022-10-16T15:54:37.518Z,97587.09
2022-10-16T15:57:07.337Z,97583.38
2022-10-16T15:59:35.705Z,97586.44
2022-10-16T16:02:04.367Z,97587.97
2022-10-16T16:04:43.431Z,97584.22
2022-10-16T16:07:13.138Z,97585.28
2022-10-16T16:09:42.820Z,97579.06
2022-10-16T16:12:14.335Z,97587.81
2022-10-16T16:14:53.043Z,97578.38
2022-10-16T16:17:22.984Z,97574.69
2022-10-16T16:19:51.570Z,97577.88
2022-10-16T16:22:19.882Z,97574.69
2022-10-16T16:24:48.219Z,97574.34
2022-10-16T16:27:17.854Z,97575.16
2022-10-16T16:29:47.583Z,97580.06
2022-10-16T16:32:15.834Z,97579.09
2022-10-16T16:34:44.263Z,97570.47
2022-10-16T16:37:12.807Z,97576.88
2022-10-16T16:39:41.819Z,97584.59
2022-10-16T16:42:11.344Z,97585.16
2022-10-16T16:44:42.210Z,97579.88
2022-10-16T16:47:12.355Z,97580.03
2022-10-16T16:49:41.895Z,97582.25
2022-10-16T16:52:10.611Z,97586.84
2022-10-16T16:54:40.129Z,97605.63
2022-10-16T16:57:09.348Z,97596.25
2022-10-16T16:59:38.873Z,97617.88
2022-10-16T17:02:11.010Z,97616.72
2022-10-16T17:04:40.224Z,97622.28
2022-10-16T17:07:09.529Z,97618.56
2022-10-16T17:09:38.712Z,97622.97
2022-10-16T17:12:07.303Z,97626.00
2022-10-16T17:14:36.220Z,97618.56
2022-10-16T17:17:08.148Z,97623.13
2022-10-16T17:19:38.559Z,97619.19
2022-10-16T17:22:07.630Z,97623.75
2022-10-16T17:24:36.531Z,97625.28
2022-10-16T17:27:05.848Z,97629.16
2022-10-16T17:29:35.161Z,97631.53
2022-10-16T17:32:04.445Z,97637.34
2022-10-16T17:34:36.123Z,97650.50
2022-10-16T17:37:07.508Z,97637.81
2022-10-16T17:39:36.748Z,97640.53
2022-10-16T17:42:06.115Z,97636.63
2022-10-16T17:44:35.767Z,97642.91
2022-10-16T17:47:04.972Z,97642.56
2022-10-16T17:49:34.381Z,97650.66
2022-10-16T17:52:03.799Z,97653.19
2022-10-16T17:54:34.667Z,97653.34
2022-10-16T17:57:04.227Z,97643.03
2022-10-16T17:59:33.648Z,97650.63
2022-10-16T18:02:02.926Z,97663.47
2022-10-16T18:04:32.304Z,97661.31
2022-10-16T18:07:02.423Z,97678.69
2022-10-16T18:09:31.781Z,97675.31
2022-10-16T18:12:02.672Z,97673.16
2022-10-16T18:14:33.066Z,97684.81
2022-10-16T18:17:02.325Z,97687.00
2022-10-16T18:19:31.848Z,97685.44
2022-10-16T18:22:01.167Z,97696.13
2022-10-16T18:24:30.388Z,97695.09
2022-10-16T18:26:59.982Z,97685.78
2022-10-16T18:29:31.195Z,97689.16
2022-10-16T18:32:01.590Z,97673.78
2022-10-16T18:34:30.967Z,97677.47
2022-10-16T18:37:00.877Z,97684.03
2022-10-16T18:39:30.289Z,97682.69
2022-10-16T18:42:00.287Z,97680.16
2022-10-16T18:44:31.630Z,97675.75
2022-10-16T18:47:03.115Z,97670.19
2022-10-16T18:49:32.493Z,97670.50
2022-10-16T18:52:03.708Z,97669.50
2022-10-16T18:54:33.449Z,97670.66
2022-10-16T18:57:02.859Z,97675.91
2022-10-16T18:59:33.828Z,97682.69
2022-10-16T19:02:03.226Z,97684.41
2022-10-16T19:04:33.069Z,97688.09
2022-10-16T19:07:02.445Z,97685.72
2022-10-16T19:09:32.455Z,97680.47
2022-10-16T19:12:03.460Z,97699.72
2022-10-16T19:14:34.655Z,97700.50
2022-10-16T19:17:03.907Z,97692.31
2022-10-16T19:19:33.205Z,97688.63
2022-10-16T19:22:11.794Z,97691.66
2022-10-16T19:24:40.157Z,97696.69
2022-10-16T19:27:08.787Z,97702.50
2022-10-16T19:29:38.498Z,97698.69
2022-10-16T19:32:07.627Z,97710.22
2022-10-16T19:34:36.332Z,97711.91
2022-10-16T19:37:04.741Z,97712.03
2022-10-16T19:39:33.048Z,97726.44
2022-10-16T19:42:01.255Z,97725.78
2022-10-16T19:44:30.798Z,97717.88
2022-10-16T19:47:00.392Z,97726.97
2022-10-16T19:49:28.732Z,97731.00
2022-10-16T19:51:58.248Z,97732.25
2022-10-16T19:54:26.480Z,97726.19
2022-10-16T19:56:54.768Z,97744.09
2022-10-16T19:59:22.984Z,97743.56
2022-10-16T20:01:51.316Z,97741.56
2022-10-16T20:04:21.030Z,97743.25
2022-10-16T20:06:49.362Z,97745.28
2022-10-16T20:09:17.635Z,97754.34
2022-10-16T20:11:45.844Z,97750.38
2022-10-16T20:14:14.439Z,97754.69
2022-10-16T20:16:43.322Z,97760.56
2022-10-16T20:19:11.760Z,97762.31
2022-10-16T20:21:42.818Z,97754.16
2022-10-16T20:24:11.452Z,97739.91
2022-10-16T20:26:39.761Z,97738.28
2022-10-16T20:29:08.016Z,97734.88
2022-10-16T20:31:38.753Z,97734.47
2022-10-16T20:34:08.146Z,97742.03
2022-10-16T20:36:37.064Z,97730.06
2022-10-16T20:39:06.854Z,97734.44
2022-10-16T20:41:35.426Z,97733.03
2022-10-16T20:44:03.692Z,97739.50
2022-10-16T20:46:32.446Z,97744.41
2022-10-16T20:49:10.551Z,97740.72
2022-10-16T20:51:45.725Z,97745.25
2022-10-16T20:54:15.458Z,97749.88
2022-10-16T20:56:44.246Z,97754.25
2022-10-16T20:59:13.683Z,97752.00
2022-10-16T21:01:42.204Z,97761.31
2022-10-16T21:04:11.887Z,97763.84
2022-10-16T21:06:41.136Z,97753.19
2022-10-16T21:09:09.418Z,97759.28
2022-10-16T21:11:39.085Z,97757.22
2022-10-16T21:14:08.079Z,97754.66
2022-10-16T21:16:36.456Z,97753.38
2022-10-16T21:19:06.115Z,97753.53
2022-10-16T21:21:35.128Z,97756.25
2022-10-16T21:24:03.427Z,97749.84
2022-10-16T21:26:31.818Z,97758.22
2022-10-16T21:29:02.381Z,97759.34
2022-10-16T21:31:30.630Z,97758.50
2022-10-16T21:33:58.889Z,97755.25
2022-10-16T21:36:28.035Z,97765.00
2022-10-16T21:38:56.610Z,97759.72
2022-10-16T21:41:25.490Z,97760.16
2022-10-16T21:43:53.801Z,97771.22
2022-10-16T21:46:24.644Z,97773.09
2022-10-16T21:48:54.154Z,97763.81
2022-10-16T21:51:22.655Z,97762.09
2022-10-16T21:53:51.005Z,97763.00
2022-10-16T21:56:19.630Z,97764.16
2022-10-16T21:58:47.974Z,97770.47
2022-10-16T22:01:17.345Z,97766.41
2022-10-16T22:03:49.507Z,97771.22
2022-10-16T22:08:51.107Z,97772.00
2022-10-16T22:11:22.357Z,97766.22
2022-10-16T22:14:02.253Z,97771.78
2022-10-16T22:16:32.238Z,97767.06
2022-10-16T22:19:03.591Z,97765.91
2022-10-16T22:21:33.657Z,97758.25
2022-10-16T22:24:01.994Z,97759.13
2022-10-16T22:26:30.318Z,97754.06
2022-10-16T22:28:58.731Z,97759.66
2022-10-16T22:31:29.532Z,97740.59
2022-10-16T22:33:57.963Z,97756.38
2022-10-16T22:36:28.591Z,97748.75
2022-10-16T22:38:57.353Z,97748.47
2022-10-16T22:41:25.893Z,97747.31
2022-10-16T22:43:54.779Z,97752.97
2022-10-16T22:46:24.066Z,97752.66
2022-10-16T22:48:52.521Z,97753.81
2022-10-16T22:51:21.458Z,97746.66
2022-10-16T22:53:52.188Z,97751.16
2022-10-16T22:56:22.496Z,97743.56
2022-10-16T22:58:54.169Z,97749.25
2022-10-16T23:01:24.376Z,97743.84
2022-10-16T23:03:52.854Z,97741.00
2022-10-16T23:06:21.079Z,97749.25
2022-10-16T23:08:53.854Z,97748.56
2022-10-16T23:11:22.179Z,97747.97
2022-10-16T23:13:50.471Z,97743.44
2022-10-16T23:16:20.136Z,97752.34
2022-10-16T23:18:48.502Z,97757.22
2022-10-16T23:21:17.492Z,97762.50
2022-10-16T23:23:46.376Z,97759.44
2022-10-16T23:26:25.000Z,97759.75
2022-10-16T23:28:53.668Z,97761.81
2022-10-16T23:31:22.357Z,97766.53
2022-10-16T23:33:51.654Z,97768.22
2022-10-16T23:36:20.865Z,97772.88
2022-10-16T23:38:49.249Z,97763.41
2022-10-16T23:41:17.526Z,97772.69
2022-10-16T23:43:47.128Z,97774.38
2022-10-16T23:46:15.727Z,97775.97
2022-10-16T23:48:44.352Z,97778.47
2022-10-16T23:51:12.925Z,97777.41
2022-10-16T23:53:41.239Z,97777.78
2022-10-16T23:56:09.567Z,97774.06
2022-10-16T23:58:37.841Z,97781.25
